Nearby METAR Reports

 

KBAX - Bad Axe, Michigan, USA
Distance from station: ESE 22mi, 35km
Updated: Tue, 17-Oct-2017 5:35am EDT
Clear
Clear
 Wind from SSW
Wind: SSW 7 mph , 11 km/h
Temperature: 43°F , 6°C
Wind Chill: 39°F , 4°C
Dew Point: 37°F , 3°C
Humidity: 81%
Barometer: 30.16 inHg , 1021.3 hPa
Clouds: Clear
Visibility: 10 miles , 16 km
2017/10/17 09:35 KBAX 170935Z AUTO 21006KT 10SM CLR 06/03 A3016 RMK AO2 T00600028
KFNT - Flint, Michigan, USA
Distance from station: SSW 68mi, 109km
Updated: Tue, 17-Oct-2017 4:53am EDT
Clear
Clear
 Wind from SSW
Wind: SSW 9 mph , 15 km/h
Temperature: 46°F , 8°C
Wind Chill: 41°F , 5°C
Dew Point: 37°F , 3°C
Humidity: 71%
Barometer: 30.21 inHg , 1023 hPa
Clouds: Clear
Visibility: 10 miles , 16 km
2017/10/17 08:53 KFNT 170853Z AUTO 21008KT 10SM CLR 08/03 A3021 RMK AO2 SLP231 T00780033 56005
KMBS - Saginaw, Michigan, USA
Distance from station: SW 44mi, 70km
Updated: Tue, 17-Oct-2017 4:53am EDT
Clear
Clear
 Wind from S
Wind: S 10 mph , 17 km/h
Temperature: 45°F , 7°C
Wind Chill: 40°F , 4°C
Dew Point: 39°F , 4°C
Humidity: 81%
Barometer: 30.17 inHg , 1021.7 hPa
Clouds: Clear
Visibility: 10 miles , 16 km
2017/10/17 08:53 KMBS 170853Z AUTO 19009KT 10SM CLR 07/04 A3017 RMK AO2 SLP217 T00670039 58009
 
KDTW - Detroit/Wayne, Michigan, USA
Distance from station: SSE 117mi, 188km
Updated: Tue, 17-Oct-2017 4:53am EDT
Few Clouds
Few Clouds
 Wind from SSW
Wind: SSW 6 mph , 9 km/h
Temperature: 43°F , 6°C
Wind Chill: 39°F , 4°C
Dew Point: 39°F , 4°C
Humidity: 87%
Barometer: 30.25 inHg , 1024.4 hPa
Clouds: Few Clouds
Visibility: 10 miles , 16 km
Cloud details: Few Clouds 22000 ft
2017/10/17 08:53 KDTW 170853Z 20005KT 10SM FEW220 06/04 A3025 RMK AO2 SLP245 T00560039 55003 $
KP58 - Port Hope, Michigan, USA
Distance from station: ENE 30mi, 48km
Updated: Tue, 17-Oct-2017 4:51am EDT

 Wind from calm
Wind: Calm
Temperature: 45°F , 7°C
Dew Point: 37°F , 3°C
Humidity: 76%
Barometer: 30.13 inHg , 1020.3 hPa
2017/10/17 08:51 KP58 170851Z AUTO 00000KT 07/03 A3013 RMK AO1 SLP205 T00720028 58015
KCFS - Caro/Tuscola, Michigan, USA
Distance from station: S 31mi, 50km
Updated: Tue, 17-Oct-2017 5:34am EDT
Clear
Clear
 Wind from SSW
Wind: SSW 6 mph , 9 km/h
Temperature: 41°F , 5°C
Wind Chill: 37°F , 3°C
Dew Point: 37°F , 3°C
Humidity: 87%
Barometer: 30.16 inHg , 1021.3 hPa
Clouds: Clear
Visibility: 10 miles , 16 km
2017/10/17 09:34 KCFS 170934Z AUTO 20005KT 10SM CLR 05/03 A3016 RMK AO2 T00530027
 
KPHN - Port Huron, Michigan, USA
Distance from station: SSE 81mi, 131km
Updated: Tue, 17-Oct-2017 5:36am EDT
Clear
Clear
 Wind from SSW
Wind: SSW 3 mph , 6 km/h
Temperature: 43°F , 6°C
Dew Point: 37°F , 3°C
Humidity: 81%
Barometer: 30.22 inHg , 1023.4 hPa
Clouds: Clear
Visibility: 10 miles , 16 km
2017/10/17 09:36 KPHN 170936Z AUTO 20003KT 10SM CLR 06/03 A3022 RMK AO2
KPTK - Pontiac, Michigan, USA
Distance from station: S 86mi, 138km
Updated: Tue, 17-Oct-2017 4:53am EDT
Clear
Clear
 Wind from SW
Wind: SW 3 mph , 6 km/h
Temperature: 45°F , 7°C
Dew Point: 39°F , 4°C
Humidity: 81%
Barometer: 30.21 inHg , 1023 hPa
Clouds: Clear
Visibility: 10 miles , 16 km
2017/10/17 08:53 KPTK 170853Z AUTO 22003KT 10SM CLR 07/04 A3021 RMK AO2 SLP233 T00720044 58004
KMTC - Selfridge Angb, Michigan, USA
Distance from station: SSE 94mi, 151km
Updated: Tue, 17-Oct-2017 4:58am EDT
Clear
Clear
 Wind from SW
Wind: SW 7 mph , 11 km/h
Temperature: 43°F , 6°C
Wind Chill: 39°F , 4°C
Dew Point: 41°F , 5°C
Humidity: 93%
Barometer: 30.21 inHg , 1023 hPa
Clouds: Clear
Visibility: 10 miles , 16 km
2017/10/17 08:58 KMTC 170858Z AUTO 22006KT 10SM CLR 06/05 A3021 RMK AO2 VIS 2 1/2 RWY01 SLP238 T00610046